< < Back
Terminal Aerodrome Forecast


Current Version              Previous Versions:   1  2  3  4  5  6  7  8  9  

Terminal Aerodrome Forecast

565
FTUS42 KGSP 271121
TAFHKY
TAF
KHKY 271121Z 2712/2812 21003KT P6SM FEW015 SCT060
     FM271500 19006KT P6SM SCT045
     FM271900 17007KT P6SM VCSH SCT050
     FM280200 00000KT P6SM FEW050
     FM281000 00000KT 3SM BR FEW010=



Latest METAR

589
SAUS70 KWBC 281000 RRF
MTRHKY
METAR KHKY 280953Z AUTO 00000KT 10SM CLR 17/15 A3016 RMK AO2 SLP191
T01720150 $


USA.gov is the U.S. government's official web portal to all federal, state and local government web resources and services.